N624JX KJAX-KFRG
Flight info
| Callsign | N624JX |
|---|---|
| Flight time | 1h 55m |
| Altitude | 45000 |
| Route | CROSB2 WISPR JROSS FAY TYI Q64 SAWED KALDA SARDI1 |
| Aircraft | C750/M-SBDE3FGHRWXY/S |
Departure
| Time | 2026-04-25 00:42 |
|---|---|
| Airport | Jacksonville International Airport (KJAX) |
Arrival
| Time | 2026-04-25 02:37 |
|---|---|
| Airport | Republic Airport (KFRG) |
| Time | Latitude | Longitude | Altitude | Speed | Heading |
|---|---|---|---|---|---|
| 2026-04-25 00:17 | 30.49765 | -81.68162 | 13 ft | 0 kts | 250° |
| 2026-04-25 00:29 | 30.49763 | -81.68168 | 32 ft | 2 kts | 256° |
| 2026-04-25 00:29 | 30.49771 | -81.68188 | 32 ft | 2 kts | 320° |
| 2026-04-25 00:29 | 30.49783 | -81.68194 | 32 ft | 2 kts | 340° |
| 2026-04-25 00:30 | 30.49784 | -81.68194 | 32 ft | 0 kts | 340° |
| 2026-04-25 00:31 | 30.49785 | -81.68195 | 32 ft | 1 kts | 340° |
| 2026-04-25 00:32 | 30.49813 | -81.68216 | 32 ft | 6 kts | 300° |
| 2026-04-25 00:32 | 30.49804 | -81.68267 | 32 ft | 7 kts | 250° |
| 2026-04-25 00:32 | 30.49805 | -81.68317 | 32 ft | 6 kts | 311° |
| 2026-04-25 00:32 | 30.49851 | -81.68339 | 32 ft | 9 kts | 339° |
| 2026-04-25 00:33 | 30.49865 | -81.68397 | 32 ft | 10 kts | 251° |
| 2026-04-25 00:33 | 30.49889 | -81.68444 | 32 ft | 7 kts | 353° |
| 2026-04-25 00:33 | 30.49906 | -81.68500 | 32 ft | 10 kts | 250° |
| 2026-04-25 00:33 | 30.49872 | -81.68613 | 32 ft | 17 kts | 250° |
| 2026-04-25 00:34 | 30.49832 | -81.68741 | 32 ft | 16 kts | 250° |
| 2026-04-25 00:34 | 30.49796 | -81.68860 | 32 ft | 15 kts | 250° |
| 2026-04-25 00:34 | 30.49762 | -81.68971 | 32 ft | 14 kts | 250° |
| 2026-04-25 00:34 | 30.49730 | -81.69074 | 32 ft | 13 kts | 250° |
| 2026-04-25 00:35 | 30.49700 | -81.69170 | 32 ft | 12 kts | 250° |
| 2026-04-25 00:35 | 30.49673 | -81.69259 | 32 ft | 13 kts | 250° |
| 2026-04-25 00:35 | 30.49643 | -81.69356 | 32 ft | 12 kts | 250° |
| 2026-04-25 00:35 | 30.49615 | -81.69447 | 32 ft | 12 kts | 250° |
| 2026-04-25 00:36 | 30.49589 | -81.69531 | 32 ft | 11 kts | 250° |
| 2026-04-25 00:36 | 30.49565 | -81.69609 | 32 ft | 10 kts | 250° |
| 2026-04-25 00:36 | 30.49539 | -81.69694 | 32 ft | 11 kts | 250° |
| 2026-04-25 00:36 | 30.49514 | -81.69775 | 31 ft | 10 kts | 250° |
| 2026-04-25 00:37 | 30.49491 | -81.69851 | 31 ft | 10 kts | 250° |
| 2026-04-25 00:37 | 30.49485 | -81.69910 | 31 ft | 6 kts | 291° |
| 2026-04-25 00:37 | 30.49516 | -81.69938 | 31 ft | 6 kts | 339° |
| 2026-04-25 00:37 | 30.49537 | -81.69947 | 31 ft | 1 kts | 340° |
| 2026-04-25 00:40 | 30.49539 | -81.69948 | 31 ft | 3 kts | 340° |
| 2026-04-25 00:40 | 30.49568 | -81.69960 | 31 ft | 5 kts | 341° |
| 2026-04-25 00:40 | 30.49607 | -81.69974 | 31 ft | 5 kts | 342° |
| 2026-04-25 00:41 | 30.49631 | -81.69970 | 31 ft | 3 kts | 54° |
| 2026-04-25 00:41 | 30.49655 | -81.69889 | 32 ft | 40 kts | 70° |
| 2026-04-25 00:41 | 30.49880 | -81.69155 | 36 ft | 142 kts | 70° |
| 2026-04-25 00:41 | 30.50240 | -81.67984 | 453 ft | 161 kts | 73° |
| 2026-04-25 00:42 | 30.50621 | -81.66724 | 1123 ft | 171 kts | 73° |
| 2026-04-25 00:42 | 30.51025 | -81.65410 | 1877 ft | 175 kts | 73° |
| 2026-04-25 00:42 | 30.51443 | -81.64064 | 2630 ft | 181 kts | 72° |
| 2026-04-25 00:42 | 30.52170 | -81.62834 | 3186 ft | 197 kts | 37° |
| 2026-04-25 00:43 | 30.53456 | -81.62153 | 3818 ft | 212 kts | 13° |
| 2026-04-25 00:43 | 30.54946 | -81.61755 | 4525 ft | 227 kts | 10° |
| 2026-04-25 00:43 | 30.56546 | -81.61347 | 5215 ft | 244 kts | 10° |
| 2026-04-25 00:43 | 30.58255 | -81.60901 | 5897 ft | 259 kts | 11° |
| 2026-04-25 00:44 | 30.60062 | -81.60428 | 6625 ft | 271 kts | 10° |
| 2026-04-25 00:44 | 30.61903 | -81.59946 | 7614 ft | 272 kts | 11° |
| 2026-04-25 00:44 | 30.63760 | -81.59462 | 8668 ft | 275 kts | 11° |
| 2026-04-25 00:44 | 30.65635 | -81.58973 | 9689 ft | 278 kts | 11° |
| 2026-04-25 00:45 | 30.67548 | -81.58475 | 10419 ft | 289 kts | 11° |
| 2026-04-25 00:45 | 30.69569 | -81.57949 | 10851 ft | 307 kts | 10° |
| 2026-04-25 00:45 | 30.71708 | -81.57391 | 11296 ft | 323 kts | 10° |
| 2026-04-25 00:45 | 30.73946 | -81.56806 | 11750 ft | 337 kts | 11° |
| 2026-04-25 00:46 | 30.76275 | -81.56196 | 12236 ft | 348 kts | 11° |
| 2026-04-25 00:46 | 30.78656 | -81.55572 | 12922 ft | 352 kts | 11° |
| 2026-04-25 00:46 | 30.83488 | -81.54307 | 14253 ft | 360 kts | 10° |
| 2026-04-25 00:47 | 30.85940 | -81.53665 | 14863 ft | 363 kts | 10° |
| 2026-04-25 00:47 | 30.88416 | -81.53016 | 15484 ft | 366 kts | 10° |
| 2026-04-25 00:47 | 30.90911 | -81.52362 | 16110 ft | 369 kts | 10° |
| 2026-04-25 00:47 | 30.93429 | -81.51701 | 16752 ft | 373 kts | 10° |
| 2026-04-25 00:48 | 30.95973 | -81.51034 | 17416 ft | 377 kts | 10° |
| 2026-04-25 00:48 | 30.98542 | -81.50359 | 18118 ft | 379 kts | 10° |
| 2026-04-25 00:48 | 31.01128 | -81.49679 | 18743 ft | 383 kts | 10° |
| 2026-04-25 00:48 | 31.03743 | -81.48992 | 19329 ft | 387 kts | 10° |
| 2026-04-25 00:49 | 31.06384 | -81.48297 | 19933 ft | 391 kts | 10° |
| 2026-04-25 00:49 | 31.09054 | -81.47594 | 20542 ft | 396 kts | 10° |
| 2026-04-25 00:49 | 31.11756 | -81.46883 | 21149 ft | 400 kts | 10° |
| 2026-04-25 00:49 | 31.14487 | -81.46163 | 21757 ft | 405 kts | 10° |
| 2026-04-25 00:50 | 31.17251 | -81.45434 | 22359 ft | 409 kts | 10° |
| 2026-04-25 00:50 | 31.20044 | -81.44697 | 22981 ft | 414 kts | 10° |
| 2026-04-25 00:50 | 31.22868 | -81.43952 | 23568 ft | 418 kts | 10° |
| 2026-04-25 00:50 | 31.25721 | -81.43198 | 24101 ft | 422 kts | 11° |
| 2026-04-25 00:51 | 31.28593 | -81.42439 | 24644 ft | 425 kts | 11° |
| 2026-04-25 00:51 | 31.31486 | -81.41674 | 25151 ft | 428 kts | 11° |
| 2026-04-25 00:51 | 31.34407 | -81.40900 | 25662 ft | 432 kts | 11° |
| 2026-04-25 00:51 | 31.37345 | -81.40122 | 26166 ft | 435 kts | 11° |
| 2026-04-25 00:52 | 31.40309 | -81.39337 | 26665 ft | 438 kts | 11° |
| 2026-04-25 00:52 | 31.43296 | -81.38545 | 27165 ft | 442 kts | 11° |
| 2026-04-25 00:52 | 31.46266 | -81.37757 | 27647 ft | 445 kts | 11° |
| 2026-04-25 00:52 | 31.49297 | -81.36952 | 28137 ft | 449 kts | 11° |
| 2026-04-25 00:53 | 31.52355 | -81.36139 | 28635 ft | 452 kts | 11° |
| 2026-04-25 00:53 | 31.55430 | -81.35322 | 29129 ft | 455 kts | 11° |
| 2026-04-25 00:53 | 31.58528 | -81.34497 | 29586 ft | 458 kts | 11° |
| 2026-04-25 00:53 | 31.61651 | -81.33666 | 30039 ft | 462 kts | 11° |
| 2026-04-25 00:54 | 31.64795 | -81.32828 | 30423 ft | 465 kts | 11° |
| 2026-04-25 00:54 | 31.67959 | -81.31984 | 30813 ft | 468 kts | 11° |
| 2026-04-25 00:54 | 31.71134 | -81.31137 | 31360 ft | 466 kts | 11° |
| 2026-04-25 00:54 | 31.73266 | -81.30567 | 31777 ft | 465 kts | 11° |
| 2026-04-25 00:55 | 31.76418 | -81.29725 | 32345 ft | 464 kts | 11° |
| 2026-04-25 00:55 | 31.80580 | -81.28613 | 33090 ft | 463 kts | 11° |
| 2026-04-25 00:55 | 31.82699 | -81.28047 | 33481 ft | 462 kts | 11° |
| 2026-04-25 00:55 | 31.85835 | -81.27207 | 34030 ft | 462 kts | 11° |
| 2026-04-25 00:56 | 31.88962 | -81.26369 | 34535 ft | 460 kts | 11° |
| 2026-04-25 00:56 | 31.92080 | -81.25533 | 35089 ft | 458 kts | 11° |
| 2026-04-25 00:56 | 31.95182 | -81.24701 | 35652 ft | 456 kts | 11° |
| 2026-04-25 00:56 | 31.98271 | -81.23872 | 36212 ft | 454 kts | 11° |
| 2026-04-25 00:57 | 32.01331 | -81.22963 | 36765 ft | 454 kts | 15° |
| 2026-04-25 00:57 | 32.04289 | -81.21559 | 36895 ft | 466 kts | 24° |
| 2026-04-25 00:57 | 32.07100 | -81.19560 | 36939 ft | 479 kts | 33° |
| 2026-04-25 00:57 | 32.09724 | -81.17164 | 37776 ft | 467 kts | 37° |
| 2026-04-25 00:58 | 32.12150 | -81.14750 | 38955 ft | 450 kts | 38° |
| 2026-04-25 00:58 | 32.14608 | -81.12474 | 39287 ft | 450 kts | 33° |
| 2026-04-25 00:58 | 32.17183 | -81.10369 | 39650 ft | 450 kts | 32° |
| 2026-04-25 00:58 | 32.19739 | -81.08225 | 40042 ft | 452 kts | 34° |
| 2026-04-25 00:59 | 32.22234 | -81.05959 | 40427 ft | 453 kts | 35° |
| 2026-04-25 00:59 | 32.24731 | -81.03694 | 40805 ft | 453 kts | 34° |
| 2026-04-25 00:59 | 32.27273 | -81.01494 | 41191 ft | 453 kts | 33° |
| 2026-04-25 00:59 | 32.29822 | -80.99300 | 41580 ft | 454 kts | 33° |
| 2026-04-25 01:00 | 32.32349 | -80.97062 | 41991 ft | 454 kts | 34° |
| 2026-04-25 01:00 | 32.34867 | -80.94814 | 42368 ft | 454 kts | 34° |
| 2026-04-25 01:00 | 32.37404 | -80.92580 | 42722 ft | 454 kts | 33° |
| 2026-04-25 01:00 | 32.39945 | -80.90357 | 43086 ft | 455 kts | 33° |
| 2026-04-25 01:01 | 32.42487 | -80.88114 | 43408 ft | 456 kts | 34° |
| 2026-04-25 01:01 | 32.45030 | -80.85857 | 43748 ft | 457 kts | 34° |
| 2026-04-25 01:01 | 32.47577 | -80.83603 | 44101 ft | 457 kts | 33° |
| 2026-04-25 01:01 | 32.50128 | -80.81352 | 44446 ft | 457 kts | 33° |
| 2026-04-25 01:02 | 32.52679 | -80.79095 | 44748 ft | 458 kts | 33° |
| 2026-04-25 01:02 | 32.55228 | -80.76834 | 44980 ft | 459 kts | 34° |
| 2026-04-25 01:02 | 32.57811 | -80.74545 | 44951 ft | 467 kts | 34° |
| 2026-04-25 01:03 | 32.63083 | -80.69867 | 44964 ft | 479 kts | 34° |
| 2026-04-25 01:03 | 32.68487 | -80.65060 | 44960 ft | 491 kts | 34° |
| 2026-04-25 01:04 | 32.74119 | -80.60429 | 44951 ft | 500 kts | 29° |
| 2026-04-25 01:04 | 32.80102 | -80.56040 | 44954 ft | 511 kts | 29° |
| 2026-04-25 01:05 | 32.86126 | -80.51474 | 44938 ft | 512 kts | 30° |
| 2026-04-25 01:05 | 32.92170 | -80.46975 | 44938 ft | 514 kts | 30° |
| 2026-04-25 01:06 | 32.98206 | -80.42422 | 44942 ft | 514 kts | 30° |
| 2026-04-25 01:06 | 33.04251 | -80.37884 | 44942 ft | 513 kts | 30° |
| 2026-04-25 01:07 | 33.10285 | -80.33332 | 44938 ft | 514 kts | 30° |
| 2026-04-25 01:07 | 33.16324 | -80.28775 | 44942 ft | 514 kts | 30° |
| 2026-04-25 01:08 | 33.22361 | -80.24209 | 44938 ft | 514 kts | 30° |
| 2026-04-25 01:08 | 33.28397 | -80.19638 | 44945 ft | 514 kts | 30° |
| 2026-04-25 01:09 | 33.34429 | -80.15062 | 44937 ft | 512 kts | 30° |
| 2026-04-25 01:09 | 33.40439 | -80.10495 | 44929 ft | 512 kts | 30° |
| 2026-04-25 01:10 | 33.46453 | -80.05917 | 44925 ft | 512 kts | 30° |
| 2026-04-25 01:10 | 33.52423 | -80.01365 | 44921 ft | 512 kts | 30° |
| 2026-04-25 01:11 | 33.58429 | -79.96778 | 44935 ft | 511 kts | 30° |
| 2026-04-25 01:11 | 33.64431 | -79.92187 | 44939 ft | 512 kts | 30° |
| 2026-04-25 01:12 | 33.70431 | -79.87589 | 44935 ft | 512 kts | 30° |
| 2026-04-25 01:12 | 33.76431 | -79.82984 | 44924 ft | 512 kts | 30° |
| 2026-04-25 01:13 | 33.82427 | -79.78373 | 44918 ft | 511 kts | 30° |
| 2026-04-25 01:13 | 33.88415 | -79.73762 | 44914 ft | 511 kts | 30° |
| 2026-04-25 01:14 | 33.94400 | -79.69144 | 44915 ft | 511 kts | 30° |
| 2026-04-25 01:14 | 34.00389 | -79.64516 | 44910 ft | 511 kts | 30° |
| 2026-04-25 01:15 | 34.06372 | -79.59884 | 44920 ft | 511 kts | 30° |
| 2026-04-25 01:15 | 34.12353 | -79.55247 | 44920 ft | 511 kts | 30° |
| 2026-04-25 01:16 | 34.18332 | -79.50603 | 44918 ft | 511 kts | 30° |
| 2026-04-25 01:16 | 34.24308 | -79.45954 | 44921 ft | 511 kts | 30° |
| 2026-04-25 01:17 | 34.30283 | -79.41297 | 44920 ft | 512 kts | 30° |
| 2026-04-25 01:17 | 34.36272 | -79.36621 | 44917 ft | 512 kts | 30° |
| 2026-04-25 01:18 | 34.42257 | -79.31940 | 44911 ft | 512 kts | 30° |
| 2026-04-25 01:18 | 34.48245 | -79.27249 | 44897 ft | 512 kts | 30° |
| 2026-04-25 01:19 | 34.54232 | -79.22550 | 44895 ft | 512 kts | 30° |
| 2026-04-25 01:19 | 34.60212 | -79.17849 | 44899 ft | 512 kts | 30° |
| 2026-04-25 01:20 | 34.66193 | -79.13138 | 44900 ft | 512 kts | 30° |
| 2026-04-25 01:20 | 34.72172 | -79.08421 | 44902 ft | 512 kts | 30° |
| 2026-04-25 01:21 | 34.78154 | -79.03694 | 44889 ft | 513 kts | 30° |
| 2026-04-25 01:21 | 34.84136 | -78.98959 | 44884 ft | 513 kts | 30° |
| 2026-04-25 01:22 | 34.90116 | -78.94215 | 44890 ft | 513 kts | 30° |
| 2026-04-25 01:22 | 34.96094 | -78.89466 | 44891 ft | 513 kts | 30° |
| 2026-04-25 01:23 | 35.01670 | -78.83987 | 44886 ft | 518 kts | 40° |
| 2026-04-25 01:23 | 35.06827 | -78.77830 | 44889 ft | 519 kts | 40° |
| 2026-04-25 01:24 | 35.12085 | -78.71807 | 44867 ft | 518 kts | 40° |
| 2026-04-25 01:24 | 35.17272 | -78.65687 | 44880 ft | 519 kts | 40° |
| 2026-04-25 01:25 | 35.22504 | -78.59604 | 44891 ft | 518 kts | 40° |
| 2026-04-25 01:25 | 35.27700 | -78.53496 | 44890 ft | 518 kts | 40° |
| 2026-04-25 01:26 | 35.32905 | -78.47395 | 44881 ft | 518 kts | 40° |
| 2026-04-25 01:26 | 35.38071 | -78.41314 | 44871 ft | 518 kts | 40° |
| 2026-04-25 01:27 | 35.43268 | -78.35192 | 44879 ft | 518 kts | 40° |
| 2026-04-25 01:27 | 35.48461 | -78.29061 | 44879 ft | 518 kts | 40° |
| 2026-04-25 01:28 | 35.56245 | -78.19849 | 44878 ft | 518 kts | 40° |
| 2026-04-25 01:28 | 35.61428 | -78.13700 | 44875 ft | 518 kts | 40° |
| 2026-04-25 01:29 | 35.66611 | -78.07541 | 44880 ft | 518 kts | 40° |
| 2026-04-25 01:29 | 35.71783 | -78.01382 | 44872 ft | 518 kts | 40° |
| 2026-04-25 01:30 | 35.76955 | -77.95211 | 44886 ft | 518 kts | 40° |
| 2026-04-25 01:30 | 35.82130 | -77.89026 | 44874 ft | 518 kts | 40° |
| 2026-04-25 01:31 | 35.87301 | -77.82834 | 44865 ft | 518 kts | 40° |
| 2026-04-25 01:31 | 35.92471 | -77.76630 | 44876 ft | 518 kts | 40° |
| 2026-04-25 01:32 | 35.97632 | -77.70412 | 44878 ft | 519 kts | 41° |
| 2026-04-25 01:32 | 36.02548 | -77.63850 | 44876 ft | 520 kts | 44° |
| 2026-04-25 01:33 | 36.07449 | -77.57274 | 44877 ft | 521 kts | 43° |
| 2026-04-25 01:33 | 36.12362 | -77.50683 | 44873 ft | 521 kts | 44° |
| 2026-04-25 01:34 | 36.17262 | -77.44075 | 44861 ft | 521 kts | 44° |
| 2026-04-25 01:34 | 36.22166 | -77.37468 | 44871 ft | 521 kts | 44° |
| 2026-04-25 01:35 | 36.27058 | -77.30849 | 44876 ft | 521 kts | 44° |
| 2026-04-25 01:35 | 36.31998 | -77.24287 | 44867 ft | 519 kts | 39° |
| 2026-04-25 01:36 | 36.37367 | -77.18323 | 44886 ft | 518 kts | 37° |
| 2026-04-25 01:36 | 36.42684 | -77.12361 | 44883 ft | 519 kts | 38° |
| 2026-04-25 01:37 | 36.48037 | -77.06353 | 44884 ft | 518 kts | 38° |
| 2026-04-25 01:37 | 36.53394 | -77.00345 | 44876 ft | 519 kts | 38° |
| 2026-04-25 01:38 | 36.58739 | -76.94317 | 44888 ft | 518 kts | 38° |
| 2026-04-25 01:38 | 36.64087 | -76.88294 | 44888 ft | 519 kts | 38° |
| 2026-04-25 01:39 | 36.69430 | -76.82249 | 44893 ft | 519 kts | 38° |
| 2026-04-25 01:39 | 36.74778 | -76.76198 | 44898 ft | 519 kts | 38° |
| 2026-04-25 01:40 | 36.79218 | -76.71158 | 44897 ft | 519 kts | 38° |
| 2026-04-25 01:40 | 36.85426 | -76.64103 | 44899 ft | 519 kts | 38° |
| 2026-04-25 01:41 | 36.90763 | -76.58022 | 44899 ft | 519 kts | 38° |
| 2026-04-25 01:41 | 36.96101 | -76.51931 | 44902 ft | 521 kts | 38° |
| 2026-04-25 01:42 | 37.00549 | -76.46844 | 44890 ft | 521 kts | 38° |
| 2026-04-25 01:42 | 37.05929 | -76.40680 | 44893 ft | 521 kts | 38° |
| 2026-04-25 01:43 | 37.11239 | -76.34587 | 44894 ft | 521 kts | 39° |
| 2026-04-25 01:43 | 37.16582 | -76.28442 | 44892 ft | 522 kts | 39° |
| 2026-04-25 01:44 | 37.21958 | -76.22246 | 44887 ft | 521 kts | 39° |
| 2026-04-25 01:44 | 37.27258 | -76.16126 | 44903 ft | 521 kts | 39° |
| 2026-04-25 01:45 | 37.32592 | -76.09954 | 44903 ft | 522 kts | 39° |
| 2026-04-25 01:45 | 37.37929 | -76.03766 | 44916 ft | 522 kts | 39° |
| 2026-04-25 01:46 | 37.43259 | -75.97574 | 44919 ft | 521 kts | 39° |
| 2026-04-25 01:46 | 37.48583 | -75.91376 | 44921 ft | 521 kts | 39° |
| 2026-04-25 01:47 | 37.54025 | -75.85360 | 44902 ft | 518 kts | 32° |
| 2026-04-25 01:47 | 37.60167 | -75.80710 | 44923 ft | 514 kts | 26° |
| 2026-04-25 01:48 | 37.66337 | -75.76103 | 44921 ft | 517 kts | 28° |
| 2026-04-25 01:48 | 37.72500 | -75.71443 | 44921 ft | 516 kts | 26° |
| 2026-04-25 01:49 | 37.78680 | -75.66825 | 44926 ft | 517 kts | 27° |
| 2026-04-25 01:49 | 37.84818 | -75.62113 | 44886 ft | 517 kts | 30° |
| 2026-04-25 01:50 | 37.90758 | -75.56952 | 44883 ft | 518 kts | 31° |
| 2026-04-25 01:50 | 37.96692 | -75.51774 | 44885 ft | 518 kts | 31° |
| 2026-04-25 01:51 | 38.02627 | -75.46611 | 44908 ft | 516 kts | 31° |
| 2026-04-25 01:51 | 38.08615 | -75.41574 | 44912 ft | 516 kts | 29° |
| 2026-04-25 01:52 | 38.14660 | -75.36650 | 44907 ft | 516 kts | 29° |
| 2026-04-25 01:52 | 38.20702 | -75.31712 | 44919 ft | 517 kts | 29° |
| 2026-04-25 01:53 | 38.26913 | -75.27202 | 44904 ft | 511 kts | 19° |
| 2026-04-25 01:53 | 38.33567 | -75.24067 | 44928 ft | 510 kts | 17° |
| 2026-04-25 01:54 | 38.40195 | -75.20823 | 44919 ft | 511 kts | 18° |
| 2026-04-25 01:54 | 38.46834 | -75.17616 | 44912 ft | 510 kts | 17° |
| 2026-04-25 01:55 | 38.53472 | -75.14395 | 44906 ft | 510 kts | 18° |
| 2026-04-25 01:55 | 38.60105 | -75.11160 | 44905 ft | 510 kts | 17° |
| 2026-04-25 01:56 | 38.66443 | -75.06978 | 44894 ft | 519 kts | 32° |
| 2026-04-25 01:56 | 38.71876 | -75.00816 | 44926 ft | 524 kts | 41° |
| 2026-04-25 01:57 | 38.79987 | -74.91593 | 44611 ft | 521 kts | 36° |
| 2026-04-25 01:57 | 38.82801 | -74.88660 | 43616 ft | 520 kts | 35° |
| 2026-04-25 01:58 | 38.85610 | -74.85789 | 42654 ft | 512 kts | 34° |
| 2026-04-25 01:58 | 38.88359 | -74.82950 | 41736 ft | 503 kts | 34° |
| 2026-04-25 01:58 | 38.91042 | -74.80135 | 40858 ft | 494 kts | 33° |
| 2026-04-25 01:58 | 38.93686 | -74.77369 | 40017 ft | 487 kts | 33° |
| 2026-04-25 01:59 | 38.96307 | -74.74655 | 39208 ft | 481 kts | 32° |
| 2026-04-25 01:59 | 38.98892 | -74.71965 | 38389 ft | 476 kts | 32° |
| 2026-04-25 01:59 | 39.01451 | -74.69268 | 37474 ft | 478 kts | 32° |
| 2026-04-25 01:59 | 39.04038 | -74.66544 | 36588 ft | 483 kts | 32° |
| 2026-04-25 02:00 | 39.06658 | -74.63795 | 35734 ft | 488 kts | 32° |
| 2026-04-25 02:00 | 39.09301 | -74.61017 | 34903 ft | 493 kts | 32° |
| 2026-04-25 02:00 | 39.11968 | -74.58203 | 34104 ft | 498 kts | 32° |
| 2026-04-25 02:00 | 39.14657 | -74.55362 | 33223 ft | 501 kts | 32° |
| 2026-04-25 02:01 | 39.17311 | -74.52503 | 32196 ft | 494 kts | 33° |
| 2026-04-25 02:01 | 39.19892 | -74.49638 | 31198 ft | 486 kts | 33° |
| 2026-04-25 02:01 | 39.22446 | -74.46827 | 30240 ft | 481 kts | 33° |
| 2026-04-25 02:01 | 39.24999 | -74.44074 | 29168 ft | 474 kts | 32° |
| 2026-04-25 02:02 | 39.27504 | -74.41359 | 28097 ft | 467 kts | 33° |
| 2026-04-25 02:02 | 39.29958 | -74.38655 | 27066 ft | 460 kts | 34° |
| 2026-04-25 02:02 | 39.32367 | -74.35984 | 26077 ft | 453 kts | 34° |
| 2026-04-25 02:02 | 39.34750 | -74.33362 | 25285 ft | 445 kts | 33° |
| 2026-04-25 02:03 | 39.37110 | -74.30778 | 24762 ft | 445 kts | 33° |
| 2026-04-25 02:03 | 39.39455 | -74.28194 | 24188 ft | 442 kts | 34° |
| 2026-04-25 02:03 | 39.41782 | -74.25614 | 23608 ft | 439 kts | 34° |
| 2026-04-25 02:03 | 39.44093 | -74.23057 | 22972 ft | 435 kts | 34° |
| 2026-04-25 02:04 | 39.46391 | -74.20523 | 22412 ft | 433 kts | 34° |
| 2026-04-25 02:04 | 39.48671 | -74.17990 | 21841 ft | 431 kts | 34° |
| 2026-04-25 02:04 | 39.50934 | -74.15460 | 21275 ft | 428 kts | 34° |
| 2026-04-25 02:04 | 39.53074 | -74.12770 | 20943 ft | 432 kts | 43° |
| 2026-04-25 02:05 | 39.54997 | -74.09748 | 20967 ft | 435 kts | 44° |
| 2026-04-25 02:05 | 39.56924 | -74.06720 | 20985 ft | 436 kts | 44° |
| 2026-04-25 02:05 | 39.58861 | -74.03702 | 20987 ft | 435 kts | 44° |
| 2026-04-25 02:05 | 39.60795 | -74.00681 | 20987 ft | 436 kts | 44° |
| 2026-04-25 02:06 | 39.62726 | -73.97644 | 20983 ft | 436 kts | 44° |
| 2026-04-25 02:06 | 39.64655 | -73.94607 | 20983 ft | 436 kts | 44° |
| 2026-04-25 02:06 | 39.66589 | -73.91571 | 20986 ft | 436 kts | 44° |
| 2026-04-25 02:06 | 39.68522 | -73.88532 | 20986 ft | 436 kts | 44° |
| 2026-04-25 02:07 | 39.70451 | -73.85491 | 20986 ft | 436 kts | 44° |
| 2026-04-25 02:07 | 39.72380 | -73.82448 | 20986 ft | 436 kts | 44° |
| 2026-04-25 02:07 | 39.74308 | -73.79405 | 20986 ft | 436 kts | 44° |
| 2026-04-25 02:07 | 39.76240 | -73.76354 | 21005 ft | 437 kts | 44° |
| 2026-04-25 02:08 | 39.78162 | -73.73311 | 20990 ft | 436 kts | 44° |
| 2026-04-25 02:08 | 39.80057 | -73.70312 | 20991 ft | 435 kts | 44° |
| 2026-04-25 02:08 | 39.82006 | -73.67227 | 20990 ft | 435 kts | 44° |
| 2026-04-25 02:08 | 39.83900 | -73.64222 | 21005 ft | 437 kts | 44° |
| 2026-04-25 02:09 | 39.85855 | -73.61117 | 20985 ft | 438 kts | 43° |
| 2026-04-25 02:09 | 39.87757 | -73.58094 | 20990 ft | 438 kts | 43° |
| 2026-04-25 02:09 | 39.89714 | -73.54990 | 20989 ft | 436 kts | 43° |
| 2026-04-25 02:09 | 39.91793 | -73.52222 | 20520 ft | 428 kts | 36° |
| 2026-04-25 02:10 | 39.94009 | -73.49675 | 19908 ft | 423 kts | 34° |
| 2026-04-25 02:10 | 39.96220 | -73.47158 | 19320 ft | 422 kts | 34° |
| 2026-04-25 02:10 | 39.98377 | -73.44579 | 18727 ft | 420 kts | 36° |
| 2026-04-25 02:10 | 40.00506 | -73.41996 | 18126 ft | 417 kts | 36° |
| 2026-04-25 02:11 | 40.02642 | -73.39472 | 17464 ft | 411 kts | 35° |
| 2026-04-25 02:11 | 40.04761 | -73.36995 | 16816 ft | 407 kts | 35° |
| 2026-04-25 02:11 | 40.06848 | -73.34519 | 16178 ft | 403 kts | 36° |
| 2026-04-25 02:11 | 40.08904 | -73.32058 | 15554 ft | 399 kts | 36° |
| 2026-04-25 02:12 | 40.10944 | -73.29628 | 14961 ft | 395 kts | 35° |
| 2026-04-25 02:12 | 40.12963 | -73.27234 | 14377 ft | 390 kts | 34° |
| 2026-04-25 02:12 | 40.14952 | -73.24864 | 13784 ft | 385 kts | 34° |
| 2026-04-25 02:12 | 40.16920 | -73.22514 | 13126 ft | 381 kts | 34° |
| 2026-04-25 02:13 | 40.18867 | -73.20191 | 12747 ft | 380 kts | 34° |
| 2026-04-25 02:13 | 40.20808 | -73.17876 | 12428 ft | 377 kts | 34° |
| 2026-04-25 02:13 | 40.22737 | -73.15569 | 12099 ft | 375 kts | 34° |
| 2026-04-25 02:13 | 40.24659 | -73.13267 | 11768 ft | 373 kts | 34° |
| 2026-04-25 02:14 | 40.26569 | -73.10980 | 11445 ft | 372 kts | 34° |
| 2026-04-25 02:14 | 40.28423 | -73.08747 | 11121 ft | 346 kts | 34° |
| 2026-04-25 02:14 | 40.30113 | -73.06699 | 10820 ft | 317 kts | 33° |
| 2026-04-25 02:14 | 40.31679 | -73.04826 | 10559 ft | 294 kts | 32° |
| 2026-04-25 02:15 | 40.33168 | -73.03061 | 10304 ft | 286 kts | 32° |
| 2026-04-25 02:15 | 40.34634 | -73.01315 | 10059 ft | 284 kts | 32° |
| 2026-04-25 02:15 | 40.36084 | -72.99572 | 9809 ft | 282 kts | 32° |
| 2026-04-25 02:15 | 40.37526 | -72.97837 | 9552 ft | 281 kts | 32° |
| 2026-04-25 02:16 | 40.38969 | -72.96104 | 9303 ft | 281 kts | 33° |
| 2026-04-25 02:16 | 40.40410 | -72.94371 | 9071 ft | 281 kts | 33° |
| 2026-04-25 02:16 | 40.41846 | -72.92640 | 8816 ft | 280 kts | 33° |
| 2026-04-25 02:16 | 40.43259 | -72.90939 | 8572 ft | 279 kts | 33° |
| 2026-04-25 02:17 | 40.44690 | -72.89213 | 8326 ft | 279 kts | 34° |
| 2026-04-25 02:17 | 40.46117 | -72.87490 | 8082 ft | 279 kts | 34° |
| 2026-04-25 02:17 | 40.47561 | -72.85746 | 7834 ft | 278 kts | 34° |
| 2026-04-25 02:17 | 40.48961 | -72.84055 | 7601 ft | 277 kts | 35° |
| 2026-04-25 02:18 | 40.50365 | -72.82355 | 7353 ft | 273 kts | 36° |
| 2026-04-25 02:18 | 40.51809 | -72.80777 | 7079 ft | 267 kts | 25° |
| 2026-04-25 02:18 | 40.53501 | -72.79985 | 7022 ft | 257 kts | 6° |
| 2026-04-25 02:18 | 40.55262 | -72.79886 | 7039 ft | 254 kts | 355° |
| 2026-04-25 02:19 | 40.57026 | -72.79897 | 7041 ft | 254 kts | 355° |
| 2026-04-25 02:19 | 40.58790 | -72.79886 | 7048 ft | 253 kts | 356° |
| 2026-04-25 02:19 | 40.60553 | -72.79883 | 7043 ft | 254 kts | 355° |
| 2026-04-25 02:19 | 40.62322 | -72.79885 | 7043 ft | 254 kts | 355° |
| 2026-04-25 02:20 | 40.64088 | -72.79886 | 7037 ft | 254 kts | 355° |
| 2026-04-25 02:20 | 40.65852 | -72.79886 | 7033 ft | 254 kts | 355° |
| 2026-04-25 02:20 | 40.67621 | -72.79886 | 7032 ft | 254 kts | 355° |
| 2026-04-25 02:20 | 40.69386 | -72.79885 | 7038 ft | 252 kts | 356° |
| 2026-04-25 02:21 | 40.71136 | -72.79885 | 7033 ft | 251 kts | 356° |
| 2026-04-25 02:21 | 40.72885 | -72.79887 | 7033 ft | 251 kts | 356° |
| 2026-04-25 02:21 | 40.74631 | -72.79904 | 7028 ft | 251 kts | 354° |
| 2026-04-25 02:21 | 40.76287 | -72.80481 | 7013 ft | 246 kts | 333° |
| 2026-04-25 02:22 | 40.77678 | -72.81772 | 7013 ft | 245 kts | 316° |
| 2026-04-25 02:22 | 40.78647 | -72.83619 | 7042 ft | 248 kts | 297° |
| 2026-04-25 02:22 | 40.79079 | -72.85833 | 7043 ft | 254 kts | 279° |
| 2026-04-25 02:22 | 40.79099 | -72.88170 | 7065 ft | 255 kts | 275° |
| 2026-04-25 02:23 | 40.79103 | -72.90512 | 7018 ft | 255 kts | 275° |
| 2026-04-25 02:23 | 40.79115 | -72.92852 | 7019 ft | 255 kts | 275° |
| 2026-04-25 02:23 | 40.79123 | -72.95197 | 7001 ft | 256 kts | 275° |
| 2026-04-25 02:23 | 40.79129 | -72.97531 | 6996 ft | 255 kts | 274° |
| 2026-04-25 02:24 | 40.79135 | -72.99869 | 6865 ft | 255 kts | 274° |
| 2026-04-25 02:24 | 40.79142 | -73.02212 | 6669 ft | 255 kts | 273° |
| 2026-04-25 02:24 | 40.79147 | -73.04550 | 6453 ft | 254 kts | 273° |
| 2026-04-25 02:24 | 40.79152 | -73.06885 | 6221 ft | 255 kts | 273° |
| 2026-04-25 02:25 | 40.79156 | -73.09232 | 5993 ft | 257 kts | 273° |
| 2026-04-25 02:25 | 40.79161 | -73.11596 | 5770 ft | 258 kts | 273° |
| 2026-04-25 02:25 | 40.79165 | -73.13975 | 5514 ft | 259 kts | 273° |
| 2026-04-25 02:25 | 40.79165 | -73.16276 | 5288 ft | 242 kts | 273° |
| 2026-04-25 02:26 | 40.79166 | -73.17744 | 5140 ft | 232 kts | 273° |
| 2026-04-25 02:26 | 40.79182 | -73.20471 | 4851 ft | 217 kts | 277° |
| 2026-04-25 02:26 | 40.79487 | -73.21728 | 4563 ft | 212 kts | 303° |
| 2026-04-25 02:26 | 40.80370 | -73.23239 | 4310 ft | 206 kts | 312° |
| 2026-04-25 02:27 | 40.81246 | -73.24738 | 4087 ft | 207 kts | 307° |
| 2026-04-25 02:27 | 40.82045 | -73.26299 | 3970 ft | 202 kts | 306° |
| 2026-04-25 02:27 | 40.82859 | -73.27847 | 3979 ft | 204 kts | 307° |
| 2026-04-25 02:27 | 40.83685 | -73.29384 | 3897 ft | 208 kts | 307° |
| 2026-04-25 02:28 | 40.84520 | -73.30939 | 3692 ft | 207 kts | 307° |
| 2026-04-25 02:28 | 40.85350 | -73.32490 | 3489 ft | 206 kts | 307° |
| 2026-04-25 02:28 | 40.86180 | -73.34041 | 3281 ft | 207 kts | 307° |
| 2026-04-25 02:28 | 40.87007 | -73.35589 | 3071 ft | 205 kts | 307° |
| 2026-04-25 02:29 | 40.87833 | -73.37133 | 2852 ft | 206 kts | 306° |
| 2026-04-25 02:29 | 40.88658 | -73.38677 | 2647 ft | 206 kts | 306° |
| 2026-04-25 02:29 | 40.89486 | -73.40227 | 2446 ft | 206 kts | 305° |
| 2026-04-25 02:29 | 40.90311 | -73.41773 | 2238 ft | 207 kts | 304° |
| 2026-04-25 02:30 | 40.91146 | -73.43338 | 2035 ft | 210 kts | 303° |
| 2026-04-25 02:30 | 40.91972 | -73.44886 | 1967 ft | 206 kts | 304° |
| 2026-04-25 02:30 | 40.92597 | -73.46565 | 1921 ft | 205 kts | 278° |
| 2026-04-25 02:30 | 40.92447 | -73.48413 | 1935 ft | 203 kts | 246° |
| 2026-04-25 02:31 | 40.91631 | -73.49853 | 1970 ft | 189 kts | 221° |
| 2026-04-25 02:31 | 40.90679 | -73.50976 | 1980 ft | 182 kts | 220° |
| 2026-04-25 02:31 | 40.89746 | -73.52090 | 1975 ft | 180 kts | 220° |
| 2026-04-25 02:31 | 40.88817 | -73.53199 | 1982 ft | 180 kts | 220° |
| 2026-04-25 02:32 | 40.87886 | -73.54309 | 1972 ft | 180 kts | 220° |
| 2026-04-25 02:32 | 40.86955 | -73.55418 | 1969 ft | 180 kts | 220° |
| 2026-04-25 02:32 | 40.86002 | -73.56475 | 1943 ft | 178 kts | 211° |
| 2026-04-25 02:32 | 40.84835 | -73.56914 | 1953 ft | 175 kts | 182° |
| 2026-04-25 02:33 | 40.83659 | -73.56597 | 1949 ft | 175 kts | 156° |
| 2026-04-25 02:33 | 40.82712 | -73.55601 | 1966 ft | 174 kts | 134° |
| 2026-04-25 02:33 | 40.81938 | -73.54455 | 1953 ft | 156 kts | 134° |
| 2026-04-25 02:33 | 40.81255 | -73.53468 | 1953 ft | 136 kts | 134° |
| 2026-04-25 02:34 | 40.80646 | -73.52588 | 1950 ft | 124 kts | 134° |
| 2026-04-25 02:34 | 40.80080 | -73.51767 | 1954 ft | 119 kts | 134° |
| 2026-04-25 02:34 | 40.79517 | -73.50954 | 1916 ft | 122 kts | 134° |
| 2026-04-25 02:34 | 40.78943 | -73.50119 | 1770 ft | 123 kts | 133° |
| 2026-04-25 02:35 | 40.78365 | -73.49281 | 1598 ft | 123 kts | 133° |
| 2026-04-25 02:35 | 40.77793 | -73.48451 | 1454 ft | 121 kts | 133° |
| 2026-04-25 02:35 | 40.77228 | -73.47630 | 1282 ft | 120 kts | 132° |
| 2026-04-25 02:35 | 40.76661 | -73.46815 | 1119 ft | 121 kts | 133° |
| 2026-04-25 02:36 | 40.76089 | -73.46000 | 940 ft | 120 kts | 132° |
| 2026-04-25 02:36 | 40.75537 | -73.45182 | 767 ft | 119 kts | 131° |
| 2026-04-25 02:36 | 40.74981 | -73.44370 | 590 ft | 119 kts | 131° |
| 2026-04-25 02:36 | 40.74420 | -73.43563 | 421 ft | 119 kts | 131° |
| 2026-04-25 02:37 | 40.73863 | -73.42749 | 267 ft | 120 kts | 132° |
| 2026-04-25 02:37 | 40.73298 | -73.41934 | 88 ft | 120 kts | 132° |
| 2026-04-25 02:37 | 40.72790 | -73.41201 | 69 ft | 87 kts | 131° |
| 2026-04-25 02:37 | 40.72552 | -73.40854 | 65 ft | 32 kts | 133° |
| 2026-04-25 02:38 | 40.72421 | -73.40664 | 67 ft | 24 kts | 132° |
| 2026-04-25 02:38 | 40.72319 | -73.40517 | 68 ft | 20 kts | 132° |
| 2026-04-25 02:38 | 40.72270 | -73.40458 | 68 ft | 7 kts | 159° |
| 2026-04-25 02:38 | 40.72225 | -73.40477 | 68 ft | 9 kts | 223° |
| 2026-04-25 02:39 | 40.72190 | -73.40525 | 68 ft | 5 kts | 247° |
| 2026-04-25 02:39 | 40.72225 | -73.40593 | 68 ft | 11 kts | 312° |
| 2026-04-25 02:39 | 40.72289 | -73.40687 | 66 ft | 16 kts | 312° |
| 2026-04-25 02:39 | 40.72365 | -73.40797 | 67 ft | 16 kts | 312° |
| 2026-04-25 02:40 | 40.72441 | -73.40906 | 67 ft | 16 kts | 311° |
| 2026-04-25 02:40 | 40.72515 | -73.41014 | 65 ft | 16 kts | 312° |
| 2026-04-25 02:40 | 40.72588 | -73.41120 | 66 ft | 16 kts | 311° |
| 2026-04-25 02:40 | 40.72660 | -73.41224 | 68 ft | 15 kts | 312° |
| 2026-04-25 02:41 | 40.72730 | -73.41325 | 65 ft | 15 kts | 313° |
| 2026-04-25 02:41 | 40.72796 | -73.41419 | 66 ft | 13 kts | 312° |
| 2026-04-25 02:41 | 40.72856 | -73.41508 | 69 ft | 14 kts | 313° |
| 2026-04-25 02:41 | 40.72922 | -73.41603 | 68 ft | 9 kts | 312° |
| 2026-04-25 02:42 | 40.72958 | -73.41660 | 62 ft | 8 kts | 297° |
| 2026-04-25 02:42 | 40.72943 | -73.41701 | 66 ft | 5 kts | 202° |
| 2026-04-25 02:42 | 40.72919 | -73.41683 | 66 ft | 4 kts | 133° |
| 2026-04-25 02:42 | 40.72902 | -73.41682 | 67 ft | 2 kts | 220° |
| 2026-04-25 02:43 | 40.72896 | -73.41690 | 61 ft | 0 kts | 223° |